Flight Track Log - Related Links

Times and Time Zones

All times are in EDT time to prevent confusion due to time zone crossing. See the N75ZM flight status page for this flight to view local times or setup timezone preferences in your user account.

Time Position Orientation Groundspeed Altitude Reporting Facility
EDT Latitude Longitude Course Direction KTS MPH feet Rate Location/Type
Wed 08:17:36 AM 30.4864 -81.6897 43° Northeast 83 96 500  Level Jacksonville Center
Wed 08:19:20 AM 30.5133 -81.6606 43° Northeast 130 150 2,000 800 Climbing Jacksonville Center
Wed 08:20:21 AM 30.5467 -81.6792 334° Northwest 133 153 2,700 738 Climbing Jacksonville Center
Wed 08:21:22 AM 30.5803 -81.6981 334° Northwest 139 160 3,500 738 Climbing Jacksonville Center
Wed 08:22:23 AM 30.6161 -81.7169 336° Northwest 131 151 4,200 716 Climbing Jacksonville Center
Wed 08:23:11 AM 30.6411 -81.7311 334° Northwest 133 153 4,800 641 Climbing Jacksonville Center
Wed 08:24:06 AM 30.6747 -81.7478 337° Northwest 138 159 5,300 504 Climbing Jacksonville Center
Wed 08:25:10 AM 30.7147 -81.7714 333° Northwest 150 173 5,800 484 Climbing Jacksonville Center
Wed 08:26:10 AM 30.7503 -81.7928 333° Northwest 150 173 6,300 450 Climbing Jacksonville Center
Wed 08:27:10 AM 30.7881 -81.8142 334° Northwest 150 173 6,700 450 Climbing Jacksonville Center
Wed 08:28:10 AM 30.8258 -81.8331 337° Northwest 150 173 7,200 500 Climbing Jacksonville Center
Wed 08:29:10 AM 30.8636 -81.8567 332° Northwest 150 173 7,700 400 Climbing Jacksonville Center
Wed 08:30:10 AM 30.8908 -81.8708 336° Northwest 144 166 8,000 200 Climbing Jacksonville Center
Wed 08:31:10 AM 30.9392 -81.8972 335° Northwest 144 166 8,100  Climbing Jacksonville Center
Wed 08:32:10 AM 30.9811 -81.9208 334° Northwest 155 178 8,000  Descending Jacksonville Center
Wed 08:33:10 AM 31.0208 -81.9447 333° Northwest 155 178 8,100 50 Climbing Jacksonville Center
Wed 08:34:10 AM 31.0608 -81.9686 333° Northwest 155 178 8,100  Level Jacksonville Center
Wed 08:35:10 AM 31.1047 -81.9900 337° Northwest 155 178 8,100  Level Jacksonville Center
Wed 08:36:11 AM 31.1444 -82.0114 335° Northwest 155 178 8,100  Level Jacksonville Center
Wed 08:37:11 AM 31.1844 -82.0378 331° Northwest 155 178 8,100  Level Jacksonville Center
Wed 08:38:10 AM 31.2242 -82.0642 330° Northwest 155 178 8,100  Level Jacksonville Center
Wed 08:39:10 AM 31.2661 -82.0856 336° Northwest 155 178 8,100  Level Jacksonville Center
Wed 08:40:10 AM 31.3039 -82.1072 334° Northwest 155 178 8,100  Level Jacksonville Center
Wed 08:41:10 AM 31.3417 -82.1289 334° Northwest 155 178 8,100  Level Jacksonville Center
Wed 08:42:11 AM 31.3856 -82.1503 337° Northwest 160 184 8,100 -50 Level Jacksonville Center
Wed 08:43:11 AM 31.4192 -82.1669 337° Northwest 155 178 8,000  Descending Jacksonville Center
Wed 08:44:10 AM 31.4589 -82.1936 330° Northwest 155 178 8,100 50 Climbing Jacksonville Center
Wed 08:45:10 AM 31.5028 -82.2175 335° Northwest 155 178 8,100  Level Jacksonville Center
Wed 08:46:11 AM 31.5406 -82.2417 331° Northwest 155 178 8,100  Level Jacksonville Center
Wed 08:47:10 AM 31.5783 -82.2683 329° Northwest 160 184 8,100  Level Jacksonville Center
Wed 08:48:11 AM 31.6119 -82.2950 326° Northwest 160 184 8,100  Level Jacksonville Center
Wed 08:49:10 AM 31.6494 -82.3189 332° Northwest 160 184 8,100  Level Jacksonville Center
Wed 08:50:10 AM 31.6872 -82.3481 327° Northwest 166 191 8,100  Level Jacksonville Center
Wed 08:51:10 AM 31.7250 -82.3747 329° Northwest 161 185 8,100  Level Jacksonville Center
Wed 08:52:10 AM 31.7625 -82.4014 329° Northwest 161 185 8,100  Level Jacksonville Center
Wed 08:53:10 AM 31.7983 -82.4306 325° Northwest 161 185 8,100  Level Jacksonville Center
Wed 08:54:10 AM 31.8400 -82.4572 331° Northwest 161 185 8,100  Level Jacksonville Center
Wed 08:55:11 AM 31.8756 -82.4839 328° Northwest 166 191 8,100  Level Jacksonville Center
Wed 08:56:10 AM 31.9133 -82.5108 329° Northwest 161 185 8,100  Level Jacksonville Center
Wed 08:57:11 AM 31.9531 -82.5375 330° Northwest 161 185 8,100  Level Jacksonville Center
Wed 08:58:10 AM 31.9928 -82.5644 330° Northwest 161 185 8,100  Level Jacksonville Center
Wed 08:59:10 AM 32.0325 -82.5911 330° Northwest 161 185 8,100  Level Jacksonville Center
Wed 09:00:10 AM 32.0681 -82.6206 325° Northwest 161 185 8,100  Level Jacksonville Center
Wed 09:01:10 AM 32.1078 -82.6472 330° Northwest 161 185 8,100  Level Jacksonville Center
Wed 09:02:42 AM 32.1667 -82.7000 323° Northwest 166 191 8,100  Level Atlanta TRACON
Wed 09:03:48 AM 32.2167 -82.7167 344° North 163 188 8,100  Level Atlanta TRACON
Wed 09:04:42 AM 32.2500 -82.7500 320° Northwest 163 188 8,100  Level Atlanta TRACON
Wed 09:05:42 AM 32.2833 -82.7833 320° Northwest 165 190 8,100  Level Atlanta TRACON
Wed 09:06:42 AM 32.3333 -82.8000 344° North 166 191 8,100  Level Atlanta TRACON
Wed 09:07:42 AM 32.3667 -82.8333 320° Northwest 162 186 8,100  Level Atlanta TRACON
Wed 09:08:42 AM 32.4000 -82.8667 320° Northwest 167 192 8,100  Level Atlanta TRACON
Wed 09:09:42 AM 32.4500 -82.8833 344° North 166 191 8,100  Level Atlanta TRACON
Wed 09:10:42 AM 32.4833 -82.9167 320° Northwest 162 186 8,100  Level Atlanta TRACON
Wed 09:11:48 AM 32.5167 -82.9500 320° Northwest 163 188 8,100  Level Atlanta TRACON
Wed 09:12:48 AM 32.5667 -82.9833 331° Northwest 162 186 8,100  Level Atlanta TRACON
Wed 09:13:48 AM 32.6000 -83.0167 320° Northwest 161 185 8,100  Level Atlanta TRACON
Wed 09:14:42 AM 32.6333 -83.0333 337° Northwest 160 184 8,100  Level Atlanta TRACON
Wed 09:15:42 AM 32.6667 -83.0667 320° Northwest 159 183 8,100  Level Atlanta TRACON
Wed 09:16:48 AM 32.7000 -83.1000 320° Northwest 160 184 8,100  Level Atlanta TRACON
Wed 09:17:42 AM 32.7333 -83.1333 320° Northwest 160 184 8,100  Level Atlanta TRACON
Wed 09:18:42 AM 32.7833 -83.1667 331° Northwest 161 185 8,100 -150 Level Atlanta TRACON
Wed 09:19:42 AM 32.8167 -83.1833 337° Northwest 166 191 7,800 -300 Descending Atlanta TRACON
Wed 09:20:42 AM 32.8500 -83.2167 320° Northwest 173 199 7,500 -316 Descending Atlanta TRACON
Wed 09:21:36 AM 32.8833 -83.2500 320° Northwest 171 197 7,200 -400 Descending Atlanta TRACON
Wed 09:22:42 AM 32.9333 -83.2833 331° Northwest 176 203 6,700 -400 Descending Atlanta TRACON
Wed 09:23:36 AM 32.9667 -83.3167 320° Northwest 172 198 6,400 -316 Descending Atlanta TRACON
Wed 09:24:36 AM 33.0000 -83.3500 320° Northwest 171 197 6,100 -158 Descending Atlanta TRACON
Wed 09:25:30 AM 33.0500 -83.3833 331° Northwest 163 188 6,100  Level Atlanta TRACON
Wed 09:26:30 AM 33.0833 -83.4000 337° Northwest 161 185 6,100  Level Atlanta TRACON
Wed 09:27:30 AM 33.1167 -83.4333 320° Northwest 163 188 6,100  Level Atlanta TRACON
Wed 09:28:36 AM 33.1500 -83.4667 320° Northwest 159 183 6,100  Level Atlanta TRACON
Wed 09:29:36 AM 33.1833 -83.5000 320° Northwest 160 184 6,100  Level Atlanta TRACON
Wed 09:30:30 AM 33.2167 -83.5333 320° Northwest 162 186 6,100  Level Atlanta TRACON
Wed 09:31:36 AM 33.2667 -83.5667 331° Northwest 163 188 6,100  Level Atlanta TRACON
Wed 09:32:30 AM 33.3000 -83.5833 337° Northwest 158 182 6,100  Level Atlanta TRACON
Wed 09:33:30 AM 33.3333 -83.6167 320° Northwest 160 184 6,100  Level Atlanta TRACON
Wed 09:34:36 AM 33.3667 -83.6500 320° Northwest 156 180 6,100  Level Atlanta TRACON
Wed 09:35:30 AM 33.4000 -83.6833 320° Northwest 158 182 6,100  Level Atlanta TRACON
Wed 09:36:42 AM 33.4500 -83.7167 331° Northwest 158 182 6,100  Level Atlanta TRACON
Wed 09:37:36 AM 33.4833 -83.7333 337° Northwest 161 185 6,100 -300 Level Atlanta TRACON
Wed 09:38:42 AM 33.5167 -83.7833 309° West 176 203 5,500 -524 Descending Atlanta TRACON
Wed 09:39:42 AM 33.5667 -83.8000 344° North 178 205 5,000 -522 Descending Atlanta TRACON
Wed 09:40:37 AM 33.6167 -83.8167 344° North 177 204 4,500 -470 Descending Atlanta TRACON
Wed 09:41:37 AM 33.6667 -83.8167 360° North 170 196 4,100 -202 Descending Atlanta TRACON
Wed 09:42:36 AM 33.7000 -83.8333 337° Northwest 165 190 4,100  Level Atlanta TRACON
Wed 09:43:36 AM 33.7333 -83.8667 320° Northwest 155 178 4,100  Level Atlanta TRACON
Wed 09:44:36 AM 33.7667 -83.9000 320° Northwest 150 173 4,100  Level Atlanta TRACON
Wed 09:45:36 AM 33.8000 -83.9333 320° Northwest 154 177 4,100 -149 Level Atlanta TRACON
Wed 09:46:37 AM 33.8167 -83.9833 292° West 165 190 3,800 -400 Descending Atlanta TRACON
Wed 09:47:36 AM 33.8333 -84.0333 292° West 169 194 3,300 -353 Descending Atlanta TRACON
Wed 09:48:36 AM 33.8500 -84.0833 292° West 163 188 3,100 -100 Descending Atlanta TRACON
Wed 09:49:36 AM 33.8667 -84.1333 292° West 155 178 3,100 -100 Level Atlanta TRACON
Wed 09:50:36 AM 33.8667 -84.1833 270° West 146 168 2,900 -350 Descending Atlanta TRACON
Wed 09:51:36 AM 33.8833 -84.2167 301° West 130 150 2,400 -450 Descending Atlanta TRACON
Wed 09:52:36 AM 33.9000 -84.2500 301° West 106 122 2,000 -365 Descending Atlanta TRACON
Wed 09:53:31 AM 33.9000 -84.2833 270° West 108 124 1,700 -327 Descending Atlanta TRACON
Wed 09:55:00 AM 33.8667 -84.3000 270° West  Level FlightAware Approximate
Wed 10:02:00 AM 33.8756 -84.3020 270° West  Level Estimated
Wed 10:03:00 AM 33.8756 -84.3020 270° West  Level Estimated

Login

Don't have an account? Register now (free) for customized features, flight alerts, and more!